Logs for 'Bow' Scott Bowen, Houston, TX, USA [EL29ew]
Paging Controls
Date UTC KHz ID Location S/P ITU Region GSQ LSB USB Sec. Fmt. Power KM Miles
2006-02-05 0849 326 BVP Houston TX USA na EL29jx 25 40 25
2006-02-05 0842 338 HR 'Sebas' Harlingen TX USA na EL16eh 25 448 278
2006-02-05 0838 344 ZIY George Town / Grand Cayman Island CYM ca EK99hg 1863 1157
2006-02-05 0830 350 OKT Yoakum TX USA na EL19kh 161 100
2006-02-05 0822 362 BNH Brenham TX USA na EM10tf 25 79 49
2006-02-05 0820 365 HQG Hugoton KS USA na DM97hd 25 962 598
2006-02-05 0811 371 FNA 'Florenville' Slidell LA USA na EM50cj 563 350
2006-02-05 0807 373 TF 'Aruba' Pueblo CO USA na DM78tg 1226 762
2006-02-05 0758 375 DW 'Owaso' Tulsa OK USA na EM26bh 20 709 441
2006-02-05 0751 376 ZIN Matthew Town / Great Inagua Island BAH ca FL30dx 400 2409 1497
2006-02-05 0747 380 BBD Brady TX USA na EM01ie 25 377 235
2006-02-05 0744 382 CR 'Conor' Chorpus Christi TX USA na EL17fu 297 185
2006-02-05 0741 382 YPL Pickle Lake ON CAN na EO41vk 500 2432 1511
2006-02-05 0737 388 SGR 'Hull' Houston TX USA na EL29ep 50 32 20
2006-02-05 0735 391 DDP San Juan / Dorado / Luiz Munoz Marin Intl PR PTR ca FK68tl 2000 3215 1998
2006-02-05 0733 396 PH Inukjuak QC CAN na FO08wk 500 3438 2136
2006-02-05 0728 402 IFJ Winnfield LA USA na EM31qx 365 227
2006-02-05 0715 413 TAM Tampico (Tamaulipas) MEX ca EL12bg 1000 881 548
2006-02-05 0711 411 SDA Shenandoah IA USA na EN20hs 25 1205 748
2006-02-05 0707 414 MSD Mansfield LA USA na EM32cb 25 294 183
2006-02-05 0658 414.5 RPB 'Republican' Belleville KS USA na EM19et 1113 691
2006-02-05 0656 413 YHD Dryden ON CAN na EN39nu 250 2226 1383
2006-02-05 0648 423 CKP 'Pilot Rock' Cherokee IA USA na EN22fr 25 1422 884
2006-02-05 0646 426 FTP Fort Payne AL USA na EM74dm 25 1062 660
2006-02-05 0641 428 POH Pocahontas IA USA na EN22qr 25 1425 885
2006-02-05 0632 428 SYW 'Cash' Greenville TX USA na EM12xx 25 340 212
2006-02-05 0630 430 VA Varadero (Villa Clara) CUB ca EL92fx 1599 994
2006-02-05 0614 435 IIY 'Washington-Wilkes Co' Washington GA USA na EM83os 25 1283 797
2006-02-05 0532 512 HMY 'Muldrow' Lexington OK USA na EM15ja 25 584 363
2006-02-05 0530 515 PKV Port Lavaca TX USA na EL18pp 25 178 111
2005-08-02 301 #828 Bonny (Angleton) TX USA na EL29gh 71 44
2005-08-02 304 #816 Aransas Pass TX USA na EL17lu 270 167
2005-08-01 301 #828 Bonny (Angleton) TX USA na EL29gh 71 44
2004-10-18 0200 376 ZIN Matthew Town / Great Inagua Island BAH ca FL30dx 400 2409 1497
2004-10-14 0250 251 MNZ Hamilton TX USA na EM01wo 25 302 188
2004-10-14 0235 275 PEZ Pleasanton TX USA na EL08rw 303 189
2004-10-14 0210 206 GLS Galveston TX USA na EL29oi 2000 103 64
2004-10-14 0205 245 ARM Wharton TX USA na EL19wg 25 88 55
2004-10-14 0155 344 BYY Bay City TX USA na EL28bx 25 109 68
2004-10-14 0150 521 DWH 'David Hooks' Houston TX USA na EM20fd 25 15
2004-10-14 0135 402 SYG 'Sandy Point' Houston TX USA na EL29gm 49 30
2004-10-14 0130 388 SGR 'Hull' Houston TX USA na EL29ep 50 32 20
2004-10-14 0120 347 JPA 'Sanjac' La Porte TX USA na EL29lq 25 63 39
2004-10-14 0115 326 JY 'Nixin' Houston TX USA na EL29jx 25 40 25
2004-10-14 0100 286 EYQ 'Weiser' Houston TX USA na EL29ew 25 0 0
2004-10-01 0000 326 JY 'Nixin' Houston TX USA na EL29jx 25 40 25